sensor_id;sensor_type;location;lat;lon;timestamp;pressure;altitude;pressure_sealevel;temperature;humidity
82588;BME280;72268;55.950;-3.724;2023-09-12T00:00:15;99475.05;;;11.20;45.22
82588;BME280;72268;55.950;-3.724;2023-09-12T00:02:41;99477.78;;;10.97;45.41
82588;BME280;72268;55.950;-3.724;2023-09-12T00:05:07;99476.71;;;10.91;45.67
82588;BME280;72268;55.950;-3.724;2023-09-12T00:07:32;99479.93;;;10.53;46.14
82588;BME280;72268;55.950;-3.724;2023-09-12T00:09:58;99477.73;;;10.69;45.75
82588;BME280;72268;55.950;-3.724;2023-09-12T00:12:24;99476.58;;;10.57;45.83
82588;BME280;72268;55.950;-3.724;2023-09-12T00:14:49;99482.46;;;10.36;46.40
82588;BME280;72268;55.950;-3.724;2023-09-12T00:17:14;99484.74;;;10.77;46.13
82588;BME280;72268;55.950;-3.724;2023-09-12T00:19:40;99485.75;;;10.96;45.53
82588;BME280;72268;55.950;-3.724;2023-09-12T00:22:05;99483.21;;;10.94;45.28
82588;BME280;72268;55.950;-3.724;2023-09-12T00:24:31;99478.50;;;10.80;45.52
82588;BME280;72268;55.950;-3.724;2023-09-12T00:26:56;99481.60;;;10.62;45.01
82588;BME280;72268;55.950;-3.724;2023-09-12T00:29:22;99484.72;;;10.97;44.94
82588;BME280;72268;55.950;-3.724;2023-09-12T00:31:47;99481.31;;;10.34;45.74
82588;BME280;72268;55.950;-3.724;2023-09-12T00:34:16;99487.62;;;10.32;45.90
82588;BME280;72268;55.950;-3.724;2023-09-12T00:36:39;99491.47;;;10.24;46.17
82588;BME280;72268;55.950;-3.724;2023-09-12T00:39:04;99495.11;;;10.38;46.09
82588;BME280;72268;55.950;-3.724;2023-09-12T00:41:30;99496.20;;;10.22;46.23
82588;BME280;72268;55.950;-3.724;2023-09-12T00:43:55;99498.95;;;10.34;46.13
82588;BME280;72268;55.950;-3.724;2023-09-12T00:46:22;99498.81;;;10.32;46.23
82588;BME280;72268;55.950;-3.724;2023-09-12T00:48:47;99498.18;;;10.54;45.74
82588;BME280;72268;55.950;-3.724;2023-09-12T00:51:13;99495.92;;;10.73;45.37
82588;BME280;72268;55.950;-3.724;2023-09-12T00:53:38;99497.34;;;10.25;45.97
82588;BME280;72268;55.950;-3.724;2023-09-12T00:56:03;99497.21;;;10.05;46.07
82588;BME280;72268;55.950;-3.724;2023-09-12T00:58:29;99498.07;;;10.41;45.27
82588;BME280;72268;55.950;-3.724;2023-09-12T01:00:55;99499.65;;;10.08;45.78
82588;BME280;72268;55.950;-3.724;2023-09-12T01:03:20;99498.42;;;10.05;46.01
82588;BME280;72268;55.950;-3.724;2023-09-12T01:05:46;99499.16;;;10.21;45.34
82588;BME280;72268;55.950;-3.724;2023-09-12T01:08:11;99505.05;;;10.00;46.52
82588;BME280;72268;55.950;-3.724;2023-09-12T01:10:36;99503.73;;;10.00;46.14
82588;BME280;72268;55.950;-3.724;2023-09-12T01:13:02;99508.76;;;9.98;46.17
82588;BME280;72268;55.950;-3.724;2023-09-12T01:15:28;99507.62;;;10.28;45.86
82588;BME280;72268;55.950;-3.724;2023-09-12T01:17:53;99506.90;;;9.85;46.49
82588;BME280;72268;55.950;-3.724;2023-09-12T01:20:23;99507.79;;;9.51;46.93
82588;BME280;72268;55.950;-3.724;2023-09-12T01:22:56;99510.67;;;9.90;46.88
82588;BME280;72268;55.950;-3.724;2023-09-12T01:25:29;99512.75;;;9.36;48.00
82588;BME280;72268;55.950;-3.724;2023-09-12T01:27:38;99517.84;;;9.86;46.99
82588;BME280;72268;55.950;-3.724;2023-09-12T01:30:04;99519.02;;;9.74;46.67
82588;BME280;72268;55.950;-3.724;2023-09-12T01:35:23;99518.35;;;10.08;46.62
82588;BME280;72268;55.950;-3.724;2023-09-12T01:37:49;99511.96;;;10.18;46.42
82588;BME280;72268;55.950;-3.724;2023-09-12T01:40:14;99513.91;;;10.12;46.29
82588;BME280;72268;55.950;-3.724;2023-09-12T01:42:43;99515.88;;;10.49;46.53
82588;BME280;72268;55.950;-3.724;2023-09-12T01:45:09;99515.57;;;9.84;46.91
82588;BME280;72268;55.950;-3.724;2023-09-12T01:47:31;99513.64;;;9.95;47.25
82588;BME280;72268;55.950;-3.724;2023-09-12T01:49:58;99515.19;;;9.97;47.15
82588;BME280;72268;55.950;-3.724;2023-09-12T01:52:22;99519.11;;;10.53;46.77
82588;BME280;72268;55.950;-3.724;2023-09-12T01:54:48;99522.97;;;10.07;47.14
82588;BME280;72268;55.950;-3.724;2023-09-12T01:57:14;99519.34;;;9.96;47.31
82588;BME280;72268;55.950;-3.724;2023-09-12T01:59:39;99521.04;;;10.40;46.83
82588;BME280;72268;55.950;-3.724;2023-09-12T02:02:04;99522.86;;;10.34;46.85
82588;BME280;72268;55.950;-3.724;2023-09-12T02:04:30;99527.00;;;9.69;47.49
82588;BME280;72268;55.950;-3.724;2023-09-12T02:06:55;99529.66;;;9.86;47.05
82588;BME280;72268;55.950;-3.724;2023-09-12T02:09:21;99534.09;;;10.13;46.39
82588;BME280;72268;55.950;-3.724;2023-09-12T02:11:50;99540.49;;;9.87;47.03
82588;BME280;72268;55.950;-3.724;2023-09-12T02:14:12;99543.99;;;10.11;46.41
82588;BME280;72268;55.950;-3.724;2023-09-12T02:16:37;99543.23;;;10.23;45.96
82588;BME280;72268;55.950;-3.724;2023-09-12T02:19:03;99545.27;;;10.50;46.04
82588;BME280;72268;55.950;-3.724;2023-09-12T02:21:29;99549.23;;;9.94;47.11
82588;BME280;72268;55.950;-3.724;2023-09-12T02:23:54;99552.47;;;10.25;46.46
82588;BME280;72268;55.950;-3.724;2023-09-12T02:26:20;99551.55;;;10.08;46.42
82588;BME280;72268;55.950;-3.724;2023-09-12T02:28:45;99549.66;;;10.13;46.30
82588;BME280;72268;55.950;-3.724;2023-09-12T02:31:11;99547.35;;;9.99;46.51
82588;BME280;72268;55.950;-3.724;2023-09-12T02:33:37;99545.53;;;10.14;46.23
82588;BME280;72268;55.950;-3.724;2023-09-12T02:36:02;99545.47;;;10.22;46.92
82588;BME280;72268;55.950;-3.724;2023-09-12T02:38:27;99547.33;;;9.45;47.36
82588;BME280;72268;55.950;-3.724;2023-09-12T02:40:53;99548.55;;;9.90;46.92
82588;BME280;72268;55.950;-3.724;2023-09-12T02:43:19;99555.14;;;9.97;46.53
82588;BME280;72268;55.950;-3.724;2023-09-12T02:45:44;99560.92;;;9.72;46.28
82588;BME280;72268;55.950;-3.724;2023-09-12T02:48:10;99565.63;;;10.05;46.72
82588;BME280;72268;55.950;-3.724;2023-09-12T02:50:35;99564.72;;;10.01;46.45
82588;BME280;72268;55.950;-3.724;2023-09-12T02:53:01;99560.89;;;10.02;45.95
82588;BME280;72268;55.950;-3.724;2023-09-12T02:55:26;99560.15;;;9.73;46.57
82588;BME280;72268;55.950;-3.724;2023-09-12T02:57:52;99565.59;;;9.81;45.88
82588;BME280;72268;55.950;-3.724;2023-09-12T03:00:18;99569.00;;;10.12;46.03
82588;BME280;72268;55.950;-3.724;2023-09-12T03:02:43;99570.07;;;10.04;46.14
82588;BME280;72268;55.950;-3.724;2023-09-12T03:05:09;99571.25;;;9.66;45.93
82588;BME280;72268;55.950;-3.724;2023-09-12T03:07:34;99573.70;;;9.81;46.11
82588;BME280;72268;55.950;-3.724;2023-09-12T03:10:00;99573.11;;;9.63;46.32
82588;BME280;72268;55.950;-3.724;2023-09-12T03:12:25;99575.03;;;9.94;46.09
82588;BME280;72268;55.950;-3.724;2023-09-12T03:14:51;99576.19;;;9.68;46.43
82588;BME280;72268;55.950;-3.724;2023-09-12T03:17:17;99578.79;;;9.61;46.56
82588;BME280;72268;55.950;-3.724;2023-09-12T03:19:42;99578.22;;;9.73;46.25
82588;BME280;72268;55.950;-3.724;2023-09-12T03:22:08;99580.41;;;9.58;45.95
82588;BME280;72268;55.950;-3.724;2023-09-12T03:24:33;99579.22;;;9.72;46.19
82588;BME280;72268;55.950;-3.724;2023-09-12T03:26:59;99579.85;;;9.55;46.59
82588;BME280;72268;55.950;-3.724;2023-09-12T03:29:24;99578.05;;;9.43;46.04
82588;BME280;72268;55.950;-3.724;2023-09-12T03:31:50;99577.39;;;9.20;46.72
82588;BME280;72268;55.950;-3.724;2023-09-12T03:34:15;99577.17;;;9.18;46.71
82588;BME280;72268;55.950;-3.724;2023-09-12T03:36:41;99580.27;;;9.33;46.40
82588;BME280;72268;55.950;-3.724;2023-09-12T03:39:07;99584.98;;;9.31;46.53
82588;BME280;72268;55.950;-3.724;2023-09-12T03:41:32;99588.66;;;9.20;46.37
82588;BME280;72268;55.950;-3.724;2023-09-12T03:43:58;99590.91;;;9.54;45.73
82588;BME280;72268;55.950;-3.724;2023-09-12T03:46:23;99590.62;;;9.67;45.87
82588;BME280;72268;55.950;-3.724;2023-09-12T03:48:49;99593.06;;;9.19;46.29
82588;BME280;72268;55.950;-3.724;2023-09-12T03:51:15;99592.85;;;9.54;46.33
82588;BME280;72268;55.950;-3.724;2023-09-12T03:53:40;99593.81;;;8.55;47.58
82588;BME280;72268;55.950;-3.724;2023-09-12T03:56:06;99591.43;;;8.49;48.01
82588;BME280;72268;55.950;-3.724;2023-09-12T03:58:31;99586.90;;;8.87;47.36
82588;BME280;72268;55.950;-3.724;2023-09-12T04:00:57;99584.23;;;8.81;47.15
82588;BME280;72268;55.950;-3.724;2023-09-12T04:03:23;99584.78;;;8.85;47.19
82588;BME280;72268;55.950;-3.724;2023-09-12T04:05:49;99582.23;;;8.69;46.86
82588;BME280;72268;55.950;-3.724;2023-09-12T04:08:14;99585.23;;;8.93;46.50
82588;BME280;72268;55.950;-3.724;2023-09-12T04:10:39;99582.41;;;8.13;47.80
82588;BME280;72268;55.950;-3.724;2023-09-12T04:13:05;99588.24;;;8.94;47.48
82588;BME280;72268;55.950;-3.724;2023-09-12T04:15:30;99591.89;;;9.27;46.72
82588;BME280;72268;55.950;-3.724;2023-09-12T04:17:56;99589.48;;;8.77;47.03
82588;BME280;72268;55.950;-3.724;2023-09-12T04:20:22;99588.74;;;8.96;46.24
82588;BME280;72268;55.950;-3.724;2023-09-12T04:22:47;99594.28;;;9.11;46.53
82588;BME280;72268;55.950;-3.724;2023-09-12T04:25:13;99594.33;;;8.56;46.42
82588;BME280;72268;55.950;-3.724;2023-09-12T04:27:39;99598.39;;;9.12;46.28
82588;BME280;72268;55.950;-3.724;2023-09-12T04:30:05;99598.12;;;8.63;46.72
82588;BME280;72268;55.950;-3.724;2023-09-12T04:32:30;99598.79;;;8.66;47.09
82588;BME280;72268;55.950;-3.724;2023-09-12T04:34:55;99599.71;;;8.54;47.31
82588;BME280;72268;55.950;-3.724;2023-09-12T04:37:21;99603.39;;;8.41;47.17
82588;BME280;72268;55.950;-3.724;2023-09-12T04:39:46;99605.87;;;8.48;47.27
82588;BME280;72268;55.950;-3.724;2023-09-12T04:42:12;99606.78;;;8.73;47.34
82588;BME280;72268;55.950;-3.724;2023-09-12T04:44:39;99603.90;;;9.18;46.30
82588;BME280;72268;55.950;-3.724;2023-09-12T04:47:03;99606.60;;;8.65;46.86
82588;BME280;72268;55.950;-3.724;2023-09-12T04:49:29;99608.24;;;8.86;46.87
82588;BME280;72268;55.950;-3.724;2023-09-12T04:51:54;99610.02;;;8.56;46.80
82588;BME280;72268;55.950;-3.724;2023-09-12T04:54:20;99610.74;;;8.38;46.67
82588;BME280;72268;55.950;-3.724;2023-09-12T04:56:45;99614.13;;;8.28;47.25
82588;BME280;72268;55.950;-3.724;2023-09-12T04:59:11;99615.05;;;8.33;47.37
82588;BME280;72268;55.950;-3.724;2023-09-12T05:01:37;99616.59;;;8.55;47.49
82588;BME280;72268;55.950;-3.724;2023-09-12T05:04:02;99618.36;;;8.87;46.75
82588;BME280;72268;55.950;-3.724;2023-09-12T05:06:28;99629.53;;;8.44;47.73
82588;BME280;72268;55.950;-3.724;2023-09-12T05:08:53;99635.64;;;8.40;47.11
82588;BME280;72268;55.950;-3.724;2023-09-12T05:11:19;99642.82;;;8.48;47.68
82588;BME280;72268;55.950;-3.724;2023-09-12T05:13:45;99638.53;;;8.52;47.71
82588;BME280;72268;55.950;-3.724;2023-09-12T05:16:10;99638.99;;;8.37;47.85
82588;BME280;72268;55.950;-3.724;2023-09-12T05:18:36;99640.23;;;8.32;47.96
82588;BME280;72268;55.950;-3.724;2023-09-12T05:21:01;99642.73;;;8.59;46.69
82588;BME280;72268;55.950;-3.724;2023-09-12T05:23:28;99650.71;;;8.84;46.45
82588;BME280;72268;55.950;-3.724;2023-09-12T05:25:52;99650.18;;;8.55;47.15
82588;BME280;72268;55.950;-3.724;2023-09-12T05:28:18;99650.21;;;8.62;47.06
82588;BME280;72268;55.950;-3.724;2023-09-12T05:30:44;99651.52;;;9.20;46.48
82588;BME280;72268;55.950;-3.724;2023-09-12T05:33:09;99655.39;;;8.36;47.19
82588;BME280;72268;55.950;-3.724;2023-09-12T05:35:35;99656.35;;;8.66;46.79
82588;BME280;72268;55.950;-3.724;2023-09-12T05:38:00;99660.40;;;8.82;46.75
82588;BME280;72268;55.950;-3.724;2023-09-12T05:40:26;99660.34;;;8.24;47.05
82588;BME280;72268;55.950;-3.724;2023-09-12T05:42:52;99660.13;;;9.00;46.62
82588;BME280;72268;55.950;-3.724;2023-09-12T05:45:17;99663.18;;;8.39;46.69
82588;BME280;72268;55.950;-3.724;2023-09-12T05:47:43;99666.64;;;8.76;46.63
82588;BME280;72268;55.950;-3.724;2023-09-12T05:50:09;99670.84;;;8.59;47.00
82588;BME280;72268;55.950;-3.724;2023-09-12T05:52:34;99673.40;;;8.49;46.74
82588;BME280;72268;55.950;-3.724;2023-09-12T05:54:59;99673.98;;;8.75;46.80
82588;BME280;72268;55.950;-3.724;2023-09-12T05:57:25;99675.32;;;8.72;46.37
82588;BME280;72268;55.950;-3.724;2023-09-12T05:59:51;99677.97;;;8.86;46.55
82588;BME280;72268;55.950;-3.724;2023-09-12T06:02:16;99681.94;;;8.98;46.88
82588;BME280;72268;55.950;-3.724;2023-09-12T06:04:42;99682.78;;;9.17;47.07
82588;BME280;72268;55.950;-3.724;2023-09-12T06:07:07;99681.77;;;8.46;47.33
82588;BME280;72268;55.950;-3.724;2023-09-12T06:09:33;99690.66;;;8.73;47.33
82588;BME280;72268;55.950;-3.724;2023-09-12T06:11:59;99695.01;;;8.63;47.14
82588;BME280;72268;55.950;-3.724;2023-09-12T06:14:24;99697.53;;;9.17;47.21
82588;BME280;72268;55.950;-3.724;2023-09-12T06:16:50;99698.48;;;9.14;47.04
82588;BME280;72268;55.950;-3.724;2023-09-12T06:19:15;99706.85;;;8.86;47.13
82588;BME280;72268;55.950;-3.724;2023-09-12T06:21:41;99708.66;;;8.82;47.18
82588;BME280;72268;55.950;-3.724;2023-09-12T06:24:09;99711.85;;;9.27;47.16
82588;BME280;72268;55.950;-3.724;2023-09-12T06:26:32;99712.43;;;8.71;47.84
82588;BME280;72268;55.950;-3.724;2023-09-12T06:28:58;99716.23;;;8.72;47.63
82588;BME280;72268;55.950;-3.724;2023-09-12T06:31:23;99717.26;;;8.83;47.96
82588;BME280;72268;55.950;-3.724;2023-09-12T06:33:49;99716.22;;;8.76;47.84
82588;BME280;72268;55.950;-3.724;2023-09-12T06:36:14;99719.20;;;8.81;48.30
82588;BME280;72268;55.950;-3.724;2023-09-12T06:38:40;99716.08;;;8.91;48.06
82588;BME280;72268;55.950;-3.724;2023-09-12T06:41:05;99721.47;;;8.58;48.71
82588;BME280;72268;55.950;-3.724;2023-09-12T06:43:31;99725.40;;;9.39;47.37
82588;BME280;72268;55.950;-3.724;2023-09-12T06:45:57;99728.57;;;9.16;47.63
82588;BME280;72268;55.950;-3.724;2023-09-12T06:48:22;99726.05;;;9.10;47.74
82588;BME280;72268;55.950;-3.724;2023-09-12T06:50:48;99729.22;;;9.39;47.31
82588;BME280;72268;55.950;-3.724;2023-09-12T06:53:13;99732.37;;;9.33;47.42
82588;BME280;72268;55.950;-3.724;2023-09-12T06:55:39;99735.87;;;9.76;47.31
82588;BME280;72268;55.950;-3.724;2023-09-12T06:58:04;99737.55;;;9.61;47.54
82588;BME280;72268;55.950;-3.724;2023-09-12T07:00:30;99739.74;;;9.74;48.10
82588;BME280;72268;55.950;-3.724;2023-09-12T07:02:56;99739.88;;;9.62;47.87
82588;BME280;72268;55.950;-3.724;2023-09-12T07:05:21;99741.09;;;9.81;47.79
82588;BME280;72268;55.950;-3.724;2023-09-12T07:07:47;99743.06;;;9.48;47.74
82588;BME280;72268;55.950;-3.724;2023-09-12T07:10:12;99741.49;;;10.05;47.50
82588;BME280;72268;55.950;-3.724;2023-09-12T07:12:38;99740.78;;;10.04;47.79
82588;BME280;72268;55.950;-3.724;2023-09-12T07:15:04;99741.93;;;9.97;47.62
82588;BME280;72268;55.950;-3.724;2023-09-12T07:17:29;99743.94;;;10.22;47.79
82588;BME280;72268;55.950;-3.724;2023-09-12T07:19:54;99748.14;;;10.20;47.61
82588;BME280;72268;55.950;-3.724;2023-09-12T07:22:20;99755.53;;;10.71;47.29
82588;BME280;72268;55.950;-3.724;2023-09-12T07:24:45;99759.48;;;10.79;47.21
82588;BME280;72268;55.950;-3.724;2023-09-12T07:27:11;99757.64;;;10.91;47.05
82588;BME280;72268;55.950;-3.724;2023-09-12T07:29:37;99753.14;;;11.27;46.48
82588;BME280;72268;55.950;-3.724;2023-09-12T07:32:02;99753.52;;;11.30;46.40
82588;BME280;72268;55.950;-3.724;2023-09-12T07:34:28;99755.44;;;11.17;46.38
82588;BME280;72268;55.950;-3.724;2023-09-12T07:36:53;99758.03;;;10.75;48.10
82588;BME280;72268;55.950;-3.724;2023-09-12T07:39:19;99761.23;;;10.70;47.92
82588;BME280;72268;55.950;-3.724;2023-09-12T07:41:44;99761.72;;;10.87;47.48
82588;BME280;72268;55.950;-3.724;2023-09-12T07:44:10;99760.45;;;10.76;47.58
82588;BME280;72268;55.950;-3.724;2023-09-12T07:46:35;99761.23;;;10.78;47.52
82588;BME280;72268;55.950;-3.724;2023-09-12T07:49:01;99764.14;;;11.17;48.20
82588;BME280;72268;55.950;-3.724;2023-09-12T07:51:26;99767.43;;;10.79;47.19
82588;BME280;72268;55.950;-3.724;2023-09-12T07:53:52;99763.07;;;10.92;47.43
82588;BME280;72268;55.950;-3.724;2023-09-12T07:56:17;99765.97;;;11.10;47.41
82588;BME280;72268;55.950;-3.724;2023-09-12T07:58:43;99771.00;;;11.01;47.32
82588;BME280;72268;55.950;-3.724;2023-09-12T08:01:09;99772.23;;;11.08;47.43
82588;BME280;72268;55.950;-3.724;2023-09-12T08:03:34;99777.18;;;10.82;48.06
82588;BME280;72268;55.950;-3.724;2023-09-12T08:05:59;99779.34;;;10.94;47.67
82588;BME280;72268;55.950;-3.724;2023-09-12T08:08:25;99779.70;;;10.92;47.73
82588;BME280;72268;55.950;-3.724;2023-09-12T08:10:50;99779.68;;;11.42;47.09
82588;BME280;72268;55.950;-3.724;2023-09-12T08:13:16;99789.76;;;11.36;47.53
82588;BME280;72268;55.950;-3.724;2023-09-12T08:15:41;99795.55;;;11.28;47.71
82588;BME280;72268;55.950;-3.724;2023-09-12T08:18:07;99793.61;;;11.13;47.40
82588;BME280;72268;55.950;-3.724;2023-09-12T08:20:32;99793.36;;;11.22;47.66
82588;BME280;72268;55.950;-3.724;2023-09-12T08:22:58;99800.29;;;10.62;48.23
82588;BME280;72268;55.950;-3.724;2023-09-12T08:25:23;99801.64;;;11.46;47.23
82588;BME280;72268;55.950;-3.724;2023-09-12T08:27:49;99801.43;;;11.07;47.52
82588;BME280;72268;55.950;-3.724;2023-09-12T08:30:15;99800.62;;;11.14;47.54
82588;BME280;72268;55.950;-3.724;2023-09-12T08:32:40;99799.79;;;11.43;47.13
82588;BME280;72268;55.950;-3.724;2023-09-12T08:35:07;99799.33;;;11.52;47.88
82588;BME280;72268;55.950;-3.724;2023-09-12T08:37:31;99801.76;;;11.34;47.54
82588;BME280;72268;55.950;-3.724;2023-09-12T08:39:56;99805.99;;;11.59;47.74
82588;BME280;72268;55.950;-3.724;2023-09-12T08:42:22;99813.63;;;11.68;47.31
82588;BME280;72268;55.950;-3.724;2023-09-12T08:44:48;99818.86;;;11.88;46.99
82588;BME280;72268;55.950;-3.724;2023-09-12T08:47:14;99822.90;;;11.61;47.70
82588;BME280;72268;55.950;-3.724;2023-09-12T08:49:39;99821.04;;;11.97;46.85
82588;BME280;72268;55.950;-3.724;2023-09-12T08:52:05;99822.50;;;11.91;47.53
82588;BME280;72268;55.950;-3.724;2023-09-12T08:54:30;99821.28;;;12.64;47.08
82588;BME280;72268;55.950;-3.724;2023-09-12T08:56:55;99819.47;;;12.92;46.58
82588;BME280;72268;55.950;-3.724;2023-09-12T08:59:21;99823.83;;;13.17;45.30
82588;BME280;72268;55.950;-3.724;2023-09-12T09:01:46;99827.88;;;13.29;45.67
82588;BME280;72268;55.950;-3.724;2023-09-12T09:04:12;99827.70;;;13.48;45.50
82588;BME280;72268;55.950;-3.724;2023-09-12T09:06:37;99825.75;;;13.61;45.14
82588;BME280;72268;55.950;-3.724;2023-09-12T09:09:04;99825.35;;;13.60;44.68
82588;BME280;72268;55.950;-3.724;2023-09-12T09:11:28;99826.10;;;14.09;44.90
82588;BME280;72268;55.950;-3.724;2023-09-12T09:13:54;99825.93;;;14.13;43.91
82588;BME280;72268;55.950;-3.724;2023-09-12T09:16:19;99827.77;;;14.60;43.67
82588;BME280;72268;55.950;-3.724;2023-09-12T09:18:51;99831.69;;;14.29;43.65
82588;BME280;72268;55.950;-3.724;2023-09-12T09:21:16;99832.69;;;14.83;42.67
82588;BME280;72268;55.950;-3.724;2023-09-12T09:23:44;99839.31;;;14.96;42.35
82588;BME280;72268;55.950;-3.724;2023-09-12T09:26:01;99844.47;;;15.16;42.61
82588;BME280;72268;55.950;-3.724;2023-09-12T09:28:26;99841.50;;;15.54;41.23
82588;BME280;72268;55.950;-3.724;2023-09-12T09:30:52;99845.37;;;15.33;42.06
82588;BME280;72268;55.950;-3.724;2023-09-12T09:33:17;99845.19;;;15.94;41.28
82588;BME280;72268;55.950;-3.724;2023-09-12T09:35:43;99846.60;;;15.85;41.40
82588;BME280;72268;55.950;-3.724;2023-09-12T09:38:08;99843.40;;;16.39;40.21
82588;BME280;72268;55.950;-3.724;2023-09-12T09:40:34;99842.48;;;16.43;40.05
82588;BME280;72268;55.950;-3.724;2023-09-12T09:43:00;99843.23;;;16.53;40.49
82588;BME280;72268;55.950;-3.724;2023-09-12T09:45:24;99840.87;;;16.59;39.80
82588;BME280;72268;55.950;-3.724;2023-09-12T09:47:50;99842.20;;;16.47;39.17
82588;BME280;72268;55.950;-3.724;2023-09-12T09:50:16;99845.81;;;16.90;39.79
82588;BME280;72268;55.950;-3.724;2023-09-12T09:52:42;99847.47;;;17.06;39.55
82588;BME280;72268;55.950;-3.724;2023-09-12T09:55:06;99846.34;;;16.98;39.62
82588;BME280;72268;55.950;-3.724;2023-09-12T09:57:36;99844.68;;;17.11;38.99
82588;BME280;72268;55.950;-3.724;2023-09-12T09:59:57;99848.48;;;17.52;38.04
82588;BME280;72268;55.950;-3.724;2023-09-12T10:02:26;99850.89;;;17.60;37.90
82588;BME280;72268;55.950;-3.724;2023-09-12T10:04:48;99845.55;;;17.75;38.11
82588;BME280;72268;55.950;-3.724;2023-09-12T10:07:14;99844.59;;;18.09;37.04
82588;BME280;72268;55.950;-3.724;2023-09-12T10:09:40;99846.76;;;18.18;36.10
82588;BME280;72268;55.950;-3.724;2023-09-12T10:12:04;99848.39;;;18.07;37.52
82588;BME280;72268;55.950;-3.724;2023-09-12T10:14:30;99850.40;;;18.47;36.78
82588;BME280;72268;55.950;-3.724;2023-09-12T10:17:00;99851.31;;;18.27;37.03
82588;BME280;72268;55.950;-3.724;2023-09-12T10:19:23;99848.87;;;18.47;36.29
82588;BME280;72268;55.950;-3.724;2023-09-12T10:21:48;99849.00;;;18.54;36.11
82588;BME280;72268;55.950;-3.724;2023-09-12T10:24:11;99851.94;;;18.45;36.65
82588;BME280;72268;55.950;-3.724;2023-09-12T10:26:37;99852.51;;;18.96;35.56
82588;BME280;72268;55.950;-3.724;2023-09-12T10:29:02;99857.19;;;19.02;35.91
82588;BME280;72268;55.950;-3.724;2023-09-12T10:31:27;99856.08;;;19.08;36.00
82588;BME280;72268;55.950;-3.724;2023-09-12T10:33:53;99856.33;;;19.41;35.76
82588;BME280;72268;55.950;-3.724;2023-09-12T10:36:18;99857.84;;;19.62;35.57
82588;BME280;72268;55.950;-3.724;2023-09-12T10:38:44;99854.93;;;19.47;35.64
82588;BME280;72268;55.950;-3.724;2023-09-12T10:41:11;99853.22;;;19.40;35.76
82588;BME280;72268;55.950;-3.724;2023-09-12T10:43:35;99855.77;;;19.71;35.05
82588;BME280;72268;55.950;-3.724;2023-09-12T10:46:01;99858.71;;;20.02;33.82
82588;BME280;72268;55.950;-3.724;2023-09-12T10:48:25;99859.43;;;19.86;34.60
82588;BME280;72268;55.950;-3.724;2023-09-12T10:50:50;99859.18;;;20.08;34.65
82588;BME280;72268;55.950;-3.724;2023-09-12T10:53:16;99860.36;;;20.02;34.65
82588;BME280;72268;55.950;-3.724;2023-09-12T10:55:41;99859.57;;;20.32;33.84
82588;BME280;72268;55.950;-3.724;2023-09-12T10:58:08;99857.87;;;20.61;32.94
82588;BME280;72268;55.950;-3.724;2023-09-12T11:00:32;99862.29;;;20.72;33.63
82588;BME280;72268;55.950;-3.724;2023-09-12T11:02:57;99862.49;;;20.49;34.12
82588;BME280;72268;55.950;-3.724;2023-09-12T11:05:37;99863.09;;;21.19;32.96
82588;BME280;72268;55.950;-3.724;2023-09-12T11:07:48;99862.52;;;21.18;32.63
82588;BME280;72268;55.950;-3.724;2023-09-12T11:10:19;99859.18;;;21.25;30.98
82588;BME280;72268;55.950;-3.724;2023-09-12T11:12:38;99859.55;;;21.17;32.01
82588;BME280;72268;55.950;-3.724;2023-09-12T11:15:05;99867.10;;;21.05;32.61
82588;BME280;72268;55.950;-3.724;2023-09-12T11:17:29;99866.64;;;21.31;31.94
82588;BME280;72268;55.950;-3.724;2023-09-12T11:19:59;99870.92;;;21.60;31.52
82588;BME280;72268;55.950;-3.724;2023-09-12T11:22:23;99868.66;;;21.90;29.88
82588;BME280;72268;55.950;-3.724;2023-09-12T11:24:45;99868.82;;;20.79;28.14
82588;BME280;72268;55.950;-3.724;2023-09-12T11:27:10;99879.87;;;15.90;34.73
82588;BME280;72268;55.950;-3.724;2023-09-12T11:29:37;99883.30;;;16.14;35.40
82588;BME280;72268;55.950;-3.724;2023-09-12T11:32:02;99883.80;;;15.68;36.38
82588;BME280;72268;55.950;-3.724;2023-09-12T11:34:27;99883.39;;;16.86;34.10
82588;BME280;72268;55.950;-3.724;2023-09-12T11:36:55;99881.50;;;16.87;35.94
82588;BME280;72268;55.950;-3.724;2023-09-12T11:39:23;99876.98;;;18.88;32.60
82588;BME280;72268;55.950;-3.724;2023-09-12T11:41:43;99883.77;;;15.55;34.83
82588;BME280;72268;55.950;-3.724;2023-09-12T11:44:08;99881.92;;;18.03;35.35
82588;BME280;72268;55.950;-3.724;2023-09-12T11:46:35;99882.17;;;18.36;33.22
82588;BME280;72268;55.950;-3.724;2023-09-12T11:49:01;99883.52;;;18.39;33.38
82588;BME280;72268;55.950;-3.724;2023-09-12T11:51:24;99883.73;;;18.67;31.96
82588;BME280;72268;55.950;-3.724;2023-09-12T11:53:50;99887.18;;;18.54;32.12
82588;BME280;72268;55.950;-3.724;2023-09-12T11:56:15;99890.34;;;17.78;32.95
82588;BME280;72268;55.950;-3.724;2023-09-12T11:58:41;99891.61;;;17.67;33.47
82588;BME280;72268;55.950;-3.724;2023-09-12T12:01:06;99889.97;;;16.93;33.34
82588;BME280;72268;55.950;-3.724;2023-09-12T12:03:31;99889.75;;;16.93;36.34
82588;BME280;72268;55.950;-3.724;2023-09-12T12:05:57;99890.53;;;17.86;35.28
82588;BME280;72268;55.950;-3.724;2023-09-12T12:08:23;99881.25;;;19.13;32.23
82588;BME280;72268;55.950;-3.724;2023-09-12T12:10:49;99888.90;;;17.44;33.95
82588;BME280;72268;55.950;-3.724;2023-09-12T12:13:17;99885.16;;;19.78;32.00
82588;BME280;72268;55.950;-3.724;2023-09-12T12:15:38;99884.18;;;21.49;29.56
82588;BME280;72268;55.950;-3.724;2023-09-12T12:18:04;99886.14;;;21.97;29.05
82588;BME280;72268;55.950;-3.724;2023-09-12T12:20:29;99882.87;;;22.02;28.32
82588;BME280;72268;55.950;-3.724;2023-09-12T12:22:55;99885.95;;;22.28;28.82
82588;BME280;72268;55.950;-3.724;2023-09-12T12:25:20;99885.63;;;22.78;28.79
82588;BME280;72268;55.950;-3.724;2023-09-12T12:27:45;99887.10;;;23.51;28.61
82588;BME280;72268;55.950;-3.724;2023-09-12T12:30:12;99882.62;;;23.42;28.38
82588;BME280;72268;55.950;-3.724;2023-09-12T12:32:36;99879.65;;;24.05;27.37
82588;BME280;72268;55.950;-3.724;2023-09-12T12:35:01;99882.84;;;24.12;27.06
82588;BME280;72268;55.950;-3.724;2023-09-12T12:37:28;99887.88;;;23.78;27.84
82588;BME280;72268;55.950;-3.724;2023-09-12T12:39:52;99890.98;;;23.70;27.85
82588;BME280;72268;55.950;-3.724;2023-09-12T12:42:17;99897.23;;;23.46;27.60
82588;BME280;72268;55.950;-3.724;2023-09-12T12:44:42;99892.07;;;23.40;27.83
82588;BME280;72268;55.950;-3.724;2023-09-12T12:47:08;99889.49;;;23.64;27.75